Terminal Aerodrome Forecast
Issued by NWS

Current Version | Previous Version | Graphics & Text | Print | Product List | Glossary On
Versions: 1 2 3 4 5 6 7 8 9 10 11 12 13 14 15
000
FTUS41 KILN 212300
TAFLCK
TAF
KLCK 212320Z 2200/2224 29008KT P6SM FEW040
     FM220400 24004KT P6SM SKC
     FM221300 29008KT P6SM SCT040
     FM221900 33010KT P6SM SCT050 SCT250=

USA.gov is the U.S. government's official web portal to all federal, state and local government web resources and services.